createdAt,value
2019-04-20T00:01:32.302Z,15.80
2019-04-20T00:06:42.944Z,15.70
2019-04-20T00:11:53.467Z,15.60
2019-04-20T00:16:52.673Z,15.50
2019-04-20T00:22:07.032Z,15.50
2019-04-20T00:27:31.349Z,15.30
2019-04-20T00:32:34.257Z,15.30
2019-04-20T00:37:25.430Z,15.20
2019-04-20T00:42:39.166Z,15.20
2019-04-20T00:47:48.935Z,15.00
2019-04-20T00:52:56.478Z,14.90
2019-04-20T00:57:55.374Z,14.90
2019-04-20T01:03:19.676Z,14.80
2019-04-20T01:08:23.242Z,14.70
2019-04-20T01:13:30.242Z,14.70
2019-04-20T01:18:36.891Z,14.70
2019-04-20T01:23:50.789Z,14.60
2019-04-20T01:29:03.945Z,14.60
2019-04-20T01:34:03.076Z,14.60
2019-04-20T01:39:16.314Z,14.60
2019-04-20T01:44:09.757Z,14.60
2019-04-20T01:49:22.085Z,14.50
2019-04-20T01:54:42.302Z,14.40
2019-04-20T01:59:52.110Z,14.30
2019-04-20T02:04:54.992Z,14.30
2019-04-20T02:10:03.631Z,14.20
2019-04-20T02:15:13.027Z,14.10
2019-04-20T02:20:35.971Z,14.10
2019-04-20T02:25:20.679Z,14.10
2019-04-20T02:46:48.953Z,13.90
2019-04-20T03:01:55.335Z,14.00
2019-04-20T03:06:58.939Z,13.90
2019-04-20T03:12:28.870Z,13.90
2019-04-20T03:17:23.429Z,13.70
2019-04-20T03:22:33.718Z,13.60
2019-04-20T03:27:30.865Z,13.50
2019-04-20T03:33:02.168Z,13.60
2019-04-20T03:37:52.465Z,13.60
2019-04-20T03:42:39.906Z,13.50
2019-04-20T03:47:57.368Z,13.50
2019-04-20T03:53:19.268Z,13.50
2019-04-20T03:58:28.505Z,13.40
2019-04-20T04:08:38.100Z,13.30
2019-04-20T04:13:39.668Z,13.40
2019-04-20T04:18:49.184Z,13.30
2019-04-20T04:24:08.487Z,13.40
2019-04-20T04:29:28.787Z,13.40
2019-04-20T04:34:31.044Z,13.40
2019-04-20T04:39:35.349Z,13.30
2019-04-20T04:44:35.461Z,13.20
2019-04-20T04:49:34.139Z,13.20
2019-04-20T04:54:45.310Z,13.40
2019-04-20T04:59:42.440Z,13.30
2019-04-20T05:05:17.732Z,13.40
2019-04-20T05:10:07.453Z,13.50
2019-04-20T05:15:22.712Z,13.70
2019-04-20T05:20:47.281Z,13.70
2019-04-20T05:26:08.266Z,13.90
2019-04-20T05:30:56.986Z,14.10
2019-04-20T05:36:18.627Z,14.40
2019-04-20T05:41:21.861Z,14.80
2019-04-20T05:46:32.098Z,15.20
2019-04-20T05:51:41.068Z,15.40
2019-04-20T05:56:47.773Z,15.40
2019-04-20T06:01:58.882Z,15.30
2019-04-20T06:07:03.428Z,15.60
2019-04-20T06:17:27.077Z,15.90
2019-04-20T06:22:45.657Z,16.50
2019-04-20T06:27:48.526Z,16.80
2019-04-20T06:33:50.249Z,17.30
2019-04-20T06:38:48.263Z,16.90
2019-04-20T06:43:40.545Z,17.30
2019-04-20T06:48:52.257Z,17.70
2019-04-20T06:53:57.064Z,17.30
2019-04-20T06:59:21.523Z,17.50
2019-04-20T07:04:38.833Z,18.10
2019-04-20T07:09:42.114Z,18.40
2019-04-20T07:14:27.249Z,18.40
2019-04-20T07:19:50.507Z,18.90
2019-04-20T07:30:07.851Z,18.40
2019-04-20T07:35:14.482Z,18.40
2019-04-20T07:40:20.397Z,18.50
2019-04-20T07:45:30.796Z,18.50
2019-04-20T07:50:31.838Z,18.90
2019-04-20T08:01:05.978Z,19.50
2019-04-20T08:06:14.466Z,19.50
2019-04-20T08:11:36.662Z,19.30
2019-04-20T08:17:09.674Z,19.60
2019-04-20T08:21:47.532Z,20.10
2019-04-20T08:26:41.344Z,19.90
2019-04-20T08:32:18.889Z,20.40
2019-04-20T08:37:20.807Z,20.20
2019-04-20T08:42:40.491Z,20.70
2019-04-20T08:57:37.907Z,21.00
2019-04-20T09:02:48.879Z,21.00
2019-04-20T09:08:04.823Z,21.20
2019-04-20T09:13:13.832Z,21.60
2019-04-20T09:18:28.352Z,21.60
2019-04-20T09:23:43.691Z,21.70
2019-04-20T09:28:59.255Z,22.10
2019-04-20T09:34:14.439Z,22.70
2019-04-20T09:39:22.540Z,23.50
2019-04-20T09:44:18.182Z,23.00
2019-04-20T09:49:37.738Z,22.50
2019-04-20T09:54:48.151Z,22.40
2019-04-20T09:59:57.541Z,22.40
2019-04-20T10:04:44.302Z,22.30
2019-04-20T10:09:50.347Z,22.10
2019-04-20T10:15:02.119Z,22.60
2019-04-20T10:20:10.849Z,22.40
2019-04-20T10:25:10.798Z,22.60
2019-04-20T10:30:16.660Z,22.40
2019-04-20T10:35:23.278Z,22.20
2019-04-20T10:40:41.484Z,22.30
2019-04-20T10:45:37.000Z,22.30
2019-04-20T10:50:43.102Z,22.40
2019-04-20T10:55:49.518Z,22.30
2019-04-20T11:00:55.738Z,22.50
2019-04-20T11:06:02.706Z,22.30
2019-04-20T11:11:14.854Z,22.30
2019-04-20T11:16:15.081Z,22.30
2019-04-20T11:21:20.067Z,22.40
2019-04-20T11:26:26.341Z,22.40
2019-04-20T11:31:37.341Z,22.50
2019-04-20T11:36:39.308Z,22.60
2019-04-20T11:41:45.781Z,22.40
2019-04-20T11:46:50.841Z,22.40
2019-04-20T11:51:57.248Z,22.20
2019-04-20T11:57:03.713Z,22.40
2019-04-20T12:02:40.095Z,22.40
2019-04-20T12:08:01.144Z,22.40
2019-04-20T12:13:10.197Z,22.40
2019-04-20T12:18:17.804Z,22.50
2019-04-20T12:23:24.515Z,22.50
2019-04-20T12:28:33.698Z,22.60
2019-04-20T12:33:46.510Z,22.70
2019-04-20T12:38:54.987Z,22.60
2019-04-20T12:44:01.743Z,22.70
2019-04-20T12:49:17.978Z,22.70
2019-04-20T12:54:29.096Z,22.70
2019-04-20T12:59:42.294Z,22.80
2019-04-20T13:04:49.140Z,22.80
2019-04-20T13:09:54.839Z,22.80
2019-04-20T13:15:29.105Z,22.90
2019-04-20T13:20:36.007Z,22.80
2019-04-20T13:25:44.930Z,22.80
2019-04-20T13:30:57.865Z,22.90
2019-04-20T13:36:08.108Z,22.90
2019-04-20T13:41:13.856Z,22.80
2019-04-20T13:46:25.276Z,22.80
2019-04-20T13:51:41.060Z,23.00
2019-04-20T13:56:50.043Z,22.90
2019-04-20T14:02:12.985Z,23.00
2019-04-20T14:07:22.041Z,23.00
2019-04-20T14:12:38.588Z,22.90
2019-04-20T14:17:44.674Z,22.90
2019-04-20T14:22:56.854Z,23.00
2019-04-20T14:28:11.224Z,22.90
2019-04-20T14:33:20.958Z,23.00
2019-04-20T14:38:28.421Z,22.90
2019-04-20T14:43:35.254Z,23.00
2019-04-20T14:48:54.487Z,23.00
2019-04-20T14:54:13.813Z,23.00
2019-04-20T14:59:27.659Z,23.20
2019-04-20T15:04:34.618Z,23.10
2019-04-20T15:09:40.707Z,23.10
2019-04-20T15:14:50.409Z,23.20
2019-04-20T16:00:08.748Z,23.00
2019-04-20T16:05:37.563Z,23.10
2019-04-20T16:10:43.346Z,23.10
2019-04-20T16:15:49.740Z,23.10
2019-04-20T16:21:03.540Z,23.10
2019-04-20T16:26:21.811Z,23.10
2019-04-20T16:31:28.816Z,23.00
2019-04-20T16:36:34.697Z,23.00
2019-04-20T16:41:40.302Z,22.80
2019-04-20T16:46:46.008Z,22.70
2019-04-20T16:51:52.578Z,22.70
2019-04-20T16:57:00.613Z,22.70
2019-04-20T17:02:06.612Z,22.60
2019-04-20T17:07:21.300Z,22.60
2019-04-20T17:12:27.957Z,22.50
2019-04-20T17:17:33.597Z,22.40
2019-04-20T17:22:38.709Z,22.30
2019-04-20T17:28:08.962Z,22.30
2019-04-20T17:33:16.363Z,22.20
2019-04-20T17:38:22.684Z,22.10
2019-04-20T17:43:37.354Z,22.00
2019-04-20T17:48:45.206Z,22.00
2019-04-20T17:54:05.295Z,21.90
2019-04-20T17:59:08.153Z,21.80
2019-04-20T18:04:49.377Z,21.70
2019-04-20T18:09:47.492Z,21.60
2019-04-20T18:14:45.893Z,21.50
2019-04-20T18:19:47.023Z,21.40
2019-04-20T18:25:12.411Z,21.20
2019-04-20T18:30:15.495Z,21.20
2019-04-20T18:35:14.020Z,21.10
2019-04-20T18:40:29.229Z,21.00
2019-04-20T18:45:39.896Z,20.90
2019-04-20T18:50:40.028Z,20.80
2019-04-20T18:55:46.812Z,20.70
2019-04-20T19:00:51.580Z,20.60
2019-04-20T19:05:55.825Z,20.50
2019-04-20T19:11:06.497Z,20.40
2019-04-20T19:16:29.962Z,20.30
2019-04-20T19:21:26.890Z,20.20
2019-04-20T19:26:32.449Z,20.10
2019-04-20T19:31:57.315Z,19.90
2019-04-20T19:36:59.083Z,19.80
2019-04-20T19:42:07.105Z,19.70
2019-04-20T19:47:24.918Z,19.60
2019-04-20T19:52:36.501Z,19.50
2019-04-20T19:57:32.226Z,19.40
2019-04-20T20:02:21.416Z,19.30
2019-04-20T20:07:35.397Z,19.20
2019-04-20T20:12:35.568Z,19.10
2019-04-20T20:18:00.345Z,18.90
2019-04-20T20:22:50.525Z,18.80
2019-04-20T20:28:03.496Z,18.60
2019-04-20T20:33:19.008Z,18.50
2019-04-20T20:38:20.515Z,18.40
2019-04-20T20:43:33.351Z,18.40
2019-04-20T20:48:38.722Z,18.30
2019-04-20T20:53:42.870Z,18.30
2019-04-20T20:58:49.118Z,18.20
2019-04-20T21:03:48.881Z,18.10
2019-04-20T21:08:54.246Z,18.00
2019-04-20T21:13:59.518Z,18.00
2019-04-20T21:19:21.479Z,18.00
2019-04-20T21:24:28.764Z,18.00
2019-04-20T21:29:40.858Z,17.90
2019-04-20T21:34:50.385Z,17.90
2019-04-20T21:39:54.174Z,17.90
2019-04-20T21:45:05.634Z,17.80
2019-04-20T21:50:20.584Z,17.80
2019-04-20T21:55:10.252Z,17.80
2019-04-20T22:00:36.370Z,17.70
2019-04-20T22:05:40.270Z,17.60
2019-04-20T22:10:47.121Z,17.50
2019-04-20T22:15:59.740Z,17.40
2019-04-20T22:21:10.947Z,17.40
2019-04-20T22:26:18.735Z,17.30
2019-04-20T22:31:15.856Z,17.30
2019-04-20T22:36:26.062Z,17.30
2019-04-20T22:41:28.622Z,17.20
2019-04-20T22:46:37.109Z,17.10
2019-04-20T22:51:52.010Z,17.00
2019-04-20T22:57:02.322Z,16.90
2019-04-20T23:02:02.083Z,16.90
2019-04-20T23:07:06.454Z,16.60
2019-04-20T23:12:17.844Z,16.60
2019-04-20T23:17:26.918Z,16.60
2019-04-20T23:22:35.956Z,16.50
2019-04-20T23:27:38.329Z,16.40
2019-04-20T23:32:44.116Z,16.30
2019-04-20T23:37:50.716Z,16.30
2019-04-20T23:43:03.368Z,16.20
2019-04-20T23:48:16.228Z,16.20
2019-04-20T23:53:37.613Z,15.90
2019-04-20T23:58:33.056Z,15.90
